sensor_id;sensor_type;location;lat;lon;timestamp;P1;durP1;ratioP1;P2;durP2;ratioP2
76850;SDS011;65824;43.726;20.692;2023-03-31T00:00:31;28.02;;;15.43;;
76850;SDS011;65824;43.726;20.692;2023-03-31T00:02:58;27.92;;;15.10;;
76850;SDS011;65824;43.726;20.692;2023-03-31T00:05:24;25.08;;;14.27;;
76850;SDS011;65824;43.726;20.692;2023-03-31T00:07:54;24.25;;;13.77;;
76850;SDS011;65824;43.726;20.692;2023-03-31T00:10:26;22.25;;;13.10;;
76850;SDS011;65824;43.726;20.692;2023-03-31T00:12:52;22.05;;;13.68;;
76850;SDS011;65824;43.726;20.692;2023-03-31T00:15:19;22.08;;;13.07;;
76850;SDS011;65824;43.726;20.692;2023-03-31T00:17:44;23.92;;;13.90;;
76850;SDS011;65824;43.726;20.692;2023-03-31T00:20:11;24.58;;;13.88;;
76850;SDS011;65824;43.726;20.692;2023-03-31T00:22:37;21.90;;;13.02;;
76850;SDS011;65824;43.726;20.692;2023-03-31T00:25:06;27.88;;;13.52;;
76850;SDS011;65824;43.726;20.692;2023-03-31T00:27:33;28.17;;;12.98;;
76850;SDS011;65824;43.726;20.692;2023-03-31T00:29:58;27.02;;;16.27;;
76850;SDS011;65824;43.726;20.692;2023-03-31T00:32:26;31.70;;;16.58;;
76850;SDS011;65824;43.726;20.692;2023-03-31T00:34:52;30.13;;;16.90;;
76850;SDS011;65824;43.726;20.692;2023-03-31T00:37:17;34.60;;;18.00;;
76850;SDS011;65824;43.726;20.692;2023-03-31T00:39:43;32.38;;;17.58;;
76850;SDS011;65824;43.726;20.692;2023-03-31T00:42:10;28.98;;;15.85;;
76850;SDS011;65824;43.726;20.692;2023-03-31T00:44:38;27.40;;;15.13;;
76850;SDS011;65824;43.726;20.692;2023-03-31T00:47:46;27.92;;;15.25;;
76850;SDS011;65824;43.726;20.692;2023-03-31T00:50:20;26.73;;;14.95;;
76850;SDS011;65824;43.726;20.692;2023-03-31T00:52:54;24.70;;;14.65;;
76850;SDS011;65824;43.726;20.692;2023-03-31T00:55:27;23.92;;;13.38;;
76850;SDS011;65824;43.726;20.692;2023-03-31T00:57:57;24.90;;;13.93;;
76850;SDS011;65824;43.726;20.692;2023-03-31T01:00:26;22.48;;;13.68;;
76850;SDS011;65824;43.726;20.692;2023-03-31T01:02:53;24.83;;;13.85;;
76850;SDS011;65824;43.726;20.692;2023-03-31T01:05:25;28.25;;;15.07;;
76850;SDS011;65824;43.726;20.692;2023-03-31T01:07:53;28.10;;;13.68;;
76850;SDS011;65824;43.726;20.692;2023-03-31T01:10:20;24.27;;;13.73;;
76850;SDS011;65824;43.726;20.692;2023-03-31T01:12:51;24.33;;;13.68;;
76850;SDS011;65824;43.726;20.692;2023-03-31T01:15:20;22.60;;;13.30;;
76850;SDS011;65824;43.726;20.692;2023-03-31T01:17:47;22.63;;;13.68;;
76850;SDS011;65824;43.726;20.692;2023-03-31T01:23:23;21.90;;;12.73;;
76850;SDS011;65824;43.726;20.692;2023-03-31T01:36:39;25.15;;;12.52;;
76850;SDS011;65824;43.726;20.692;2023-03-31T01:50:57;22.27;;;11.75;;
76850;SDS011;65824;43.726;20.692;2023-03-31T01:58:50;23.15;;;11.75;;
76850;SDS011;65824;43.726;20.692;2023-03-31T02:01:33;20.63;;;11.57;;
76850;SDS011;65824;43.726;20.692;2023-03-31T02:05:04;21.08;;;11.63;;
76850;SDS011;65824;43.726;20.692;2023-03-31T02:07:11;17.40;;;11.35;;
76850;SDS011;65824;43.726;20.692;2023-03-31T02:09:41;20.30;;;11.43;;
76850;SDS011;65824;43.726;20.692;2023-03-31T02:12:10;21.90;;;12.10;;
76850;SDS011;65824;43.726;20.692;2023-03-31T02:14:36;20.80;;;11.80;;
76850;SDS011;65824;43.726;20.692;2023-03-31T02:17:05;23.35;;;12.68;;
76850;SDS011;65824;43.726;20.692;2023-03-31T02:19:41;24.90;;;11.85;;
76850;SDS011;65824;43.726;20.692;2023-03-31T02:22:07;21.80;;;11.13;;
76850;SDS011;65824;43.726;20.692;2023-03-31T02:24:34;23.08;;;12.55;;
76850;SDS011;65824;43.726;20.692;2023-03-31T02:27:11;21.20;;;11.00;;
76850;SDS011;65824;43.726;20.692;2023-03-31T02:29:43;20.40;;;10.85;;
76850;SDS011;65824;43.726;20.692;2023-03-31T02:32:12;21.00;;;10.50;;
76850;SDS011;65824;43.726;20.692;2023-03-31T02:34:44;19.13;;;10.77;;
76850;SDS011;65824;43.726;20.692;2023-03-31T02:37:10;21.63;;;10.02;;
76850;SDS011;65824;43.726;20.692;2023-03-31T02:39:36;19.05;;;9.45;;
76850;SDS011;65824;43.726;20.692;2023-03-31T02:42:05;19.52;;;8.93;;
76850;SDS011;65824;43.726;20.692;2023-03-31T02:44:37;14.82;;;7.82;;
76850;SDS011;65824;43.726;20.692;2023-03-31T02:47:04;17.17;;;8.55;;
76850;SDS011;65824;43.726;20.692;2023-03-31T02:49:32;16.08;;;7.97;;
76850;SDS011;65824;43.726;20.692;2023-03-31T02:54:45;18.90;;;9.85;;
76850;SDS011;65824;43.726;20.692;2023-03-31T03:03:31;23.50;;;10.52;;
76850;SDS011;65824;43.726;20.692;2023-03-31T03:13:49;30.48;;;14.95;;
76850;SDS011;65824;43.726;20.692;2023-03-31T03:16:20;25.20;;;14.10;;
76850;SDS011;65824;43.726;20.692;2023-03-31T03:18:56;26.42;;;13.90;;
76850;SDS011;65824;43.726;20.692;2023-03-31T03:21:21;26.98;;;13.48;;
76850;SDS011;65824;43.726;20.692;2023-03-31T03:23:47;24.27;;;13.85;;
76850;SDS011;65824;43.726;20.692;2023-03-31T03:26:12;26.25;;;13.45;;
76850;SDS011;65824;43.726;20.692;2023-03-31T03:28:37;30.95;;;12.57;;
76850;SDS011;65824;43.726;20.692;2023-03-31T03:31:03;26.30;;;12.45;;
76850;SDS011;65824;43.726;20.692;2023-03-31T03:33:28;22.77;;;11.38;;
76850;SDS011;65824;43.726;20.692;2023-03-31T03:35:53;24.98;;;10.80;;
76850;SDS011;65824;43.726;20.692;2023-03-31T03:38:19;24.00;;;11.27;;
76850;SDS011;65824;43.726;20.692;2023-03-31T03:40:45;23.17;;;10.75;;
76850;SDS011;65824;43.726;20.692;2023-03-31T03:43:11;21.30;;;10.50;;
76850;SDS011;65824;43.726;20.692;2023-03-31T03:45:36;15.35;;;9.23;;
76850;SDS011;65824;43.726;20.692;2023-03-31T03:48:02;20.25;;;10.13;;
76850;SDS011;65824;43.726;20.692;2023-03-31T03:50:27;16.75;;;8.45;;
76850;SDS011;65824;43.726;20.692;2023-03-31T03:52:53;14.30;;;8.32;;
76850;SDS011;65824;43.726;20.692;2023-03-31T03:55:19;14.20;;;7.55;;
76850;SDS011;65824;43.726;20.692;2023-03-31T03:57:44;13.68;;;7.18;;
76850;SDS011;65824;43.726;20.692;2023-03-31T04:00:09;16.02;;;7.05;;
76850;SDS011;65824;43.726;20.692;2023-03-31T04:02:36;14.07;;;6.55;;
76850;SDS011;65824;43.726;20.692;2023-03-31T04:05:02;12.55;;;5.90;;
76850;SDS011;65824;43.726;20.692;2023-03-31T04:07:28;12.05;;;6.15;;
76850;SDS011;65824;43.726;20.692;2023-03-31T04:09:53;11.25;;;5.55;;
76850;SDS011;65824;43.726;20.692;2023-03-31T04:12:20;13.13;;;6.85;;
76850;SDS011;65824;43.726;20.692;2023-03-31T04:14:45;13.00;;;6.40;;
76850;SDS011;65824;43.726;20.692;2023-03-31T04:17:11;12.88;;;6.80;;
76850;SDS011;65824;43.726;20.692;2023-03-31T04:19:39;12.93;;;6.45;;
76850;SDS011;65824;43.726;20.692;2023-03-31T04:22:06;13.80;;;7.10;;
76850;SDS011;65824;43.726;20.692;2023-03-31T04:24:35;18.20;;;8.23;;
76850;SDS011;65824;43.726;20.692;2023-03-31T04:27:02;23.00;;;9.63;;
76850;SDS011;65824;43.726;20.692;2023-03-31T04:29:31;24.80;;;10.38;;
76850;SDS011;65824;43.726;20.692;2023-03-31T04:32:01;23.15;;;10.43;;
76850;SDS011;65824;43.726;20.692;2023-03-31T04:34:27;18.33;;;8.20;;
76850;SDS011;65824;43.726;20.692;2023-03-31T04:36:58;14.30;;;7.03;;
76850;SDS011;65824;43.726;20.692;2023-03-31T04:39:26;11.80;;;6.30;;
76850;SDS011;65824;43.726;20.692;2023-03-31T04:41:55;10.45;;;5.80;;
76850;SDS011;65824;43.726;20.692;2023-03-31T04:44:25;14.40;;;5.50;;
76850;SDS011;65824;43.726;20.692;2023-03-31T04:46:51;10.45;;;5.50;;
76850;SDS011;65824;43.726;20.692;2023-03-31T04:49:18;11.52;;;5.32;;
76850;SDS011;65824;43.726;20.692;2023-03-31T04:51:43;12.50;;;6.70;;
76850;SDS011;65824;43.726;20.692;2023-03-31T04:54:09;12.70;;;6.80;;
76850;SDS011;65824;43.726;20.692;2023-03-31T04:56:35;19.08;;;8.38;;
76850;SDS011;65824;43.726;20.692;2023-03-31T04:59:00;14.00;;;7.97;;
76850;SDS011;65824;43.726;20.692;2023-03-31T05:01:28;18.35;;;8.90;;
76850;SDS011;65824;43.726;20.692;2023-03-31T05:03:57;18.42;;;8.82;;
76850;SDS011;65824;43.726;20.692;2023-03-31T05:06:24;20.08;;;8.35;;
76850;SDS011;65824;43.726;20.692;2023-03-31T05:08:50;16.20;;;8.15;;
76850;SDS011;65824;43.726;20.692;2023-03-31T05:11:16;15.63;;;7.72;;
76850;SDS011;65824;43.726;20.692;2023-03-31T05:13:41;13.35;;;6.88;;
76850;SDS011;65824;43.726;20.692;2023-03-31T05:16:09;16.08;;;6.80;;
76850;SDS011;65824;43.726;20.692;2023-03-31T05:18:39;19.05;;;6.25;;
76850;SDS011;65824;43.726;20.692;2023-03-31T05:21:12;15.90;;;6.82;;
76850;SDS011;65824;43.726;20.692;2023-03-31T05:23:40;17.17;;;6.70;;
76850;SDS011;65824;43.726;20.692;2023-03-31T05:26:05;16.17;;;7.05;;
76850;SDS011;65824;43.726;20.692;2023-03-31T05:28:32;12.95;;;6.10;;
76850;SDS011;65824;43.726;20.692;2023-03-31T05:30:59;16.88;;;6.97;;
76850;SDS011;65824;43.726;20.692;2023-03-31T05:33:25;14.00;;;6.45;;
76850;SDS011;65824;43.726;20.692;2023-03-31T05:35:53;13.73;;;6.43;;
76850;SDS011;65824;43.726;20.692;2023-03-31T05:38:18;17.13;;;7.57;;
76850;SDS011;65824;43.726;20.692;2023-03-31T05:40:43;17.52;;;8.55;;
76850;SDS011;65824;43.726;20.692;2023-03-31T05:43:09;21.80;;;9.65;;
76850;SDS011;65824;43.726;20.692;2023-03-31T05:45:37;24.73;;;10.27;;
76850;SDS011;65824;43.726;20.692;2023-03-31T05:48:04;23.45;;;10.60;;
76850;SDS011;65824;43.726;20.692;2023-03-31T05:50:31;24.42;;;10.57;;
76850;SDS011;65824;43.726;20.692;2023-03-31T05:52:56;19.48;;;9.45;;
76850;SDS011;65824;43.726;20.692;2023-03-31T05:55:23;20.67;;;8.82;;
76850;SDS011;65824;43.726;20.692;2023-03-31T05:57:49;20.58;;;9.70;;
76850;SDS011;65824;43.726;20.692;2023-03-31T06:00:14;15.52;;;7.97;;
76850;SDS011;65824;43.726;20.692;2023-03-31T06:02:40;20.38;;;8.90;;
76850;SDS011;65824;43.726;20.692;2023-03-31T06:05:06;19.48;;;7.45;;
76850;SDS011;65824;43.726;20.692;2023-03-31T06:07:33;18.90;;;7.57;;
76850;SDS011;65824;43.726;20.692;2023-03-31T06:09:59;13.02;;;6.50;;
76850;SDS011;65824;43.726;20.692;2023-03-31T06:12:25;16.20;;;7.03;;
76850;SDS011;65824;43.726;20.692;2023-03-31T06:14:50;15.02;;;8.15;;
76850;SDS011;65824;43.726;20.692;2023-03-31T06:17:16;15.70;;;7.55;;
76850;SDS011;65824;43.726;20.692;2023-03-31T06:19:42;21.65;;;8.60;;
76850;SDS011;65824;43.726;20.692;2023-03-31T06:22:07;17.08;;;8.20;;
76850;SDS011;65824;43.726;20.692;2023-03-31T06:24:32;15.85;;;7.40;;
76850;SDS011;65824;43.726;20.692;2023-03-31T06:26:58;17.77;;;7.03;;
76850;SDS011;65824;43.726;20.692;2023-03-31T06:29:25;16.23;;;6.32;;
76850;SDS011;65824;43.726;20.692;2023-03-31T06:31:51;13.98;;;5.97;;
76850;SDS011;65824;43.726;20.692;2023-03-31T06:34:17;13.70;;;6.28;;
76850;SDS011;65824;43.726;20.692;2023-03-31T06:36:42;14.55;;;5.72;;
76850;SDS011;65824;43.726;20.692;2023-03-31T06:39:11;16.35;;;5.80;;
76850;SDS011;65824;43.726;20.692;2023-03-31T06:41:36;12.18;;;5.18;;
76850;SDS011;65824;43.726;20.692;2023-03-31T06:44:02;10.23;;;5.50;;
76850;SDS011;65824;43.726;20.692;2023-03-31T06:46:29;12.95;;;5.72;;
76850;SDS011;65824;43.726;20.692;2023-03-31T06:48:54;11.75;;;6.05;;
76850;SDS011;65824;43.726;20.692;2023-03-31T06:51:20;13.73;;;6.30;;
76850;SDS011;65824;43.726;20.692;2023-03-31T06:53:45;18.50;;;6.55;;
76850;SDS011;65824;43.726;20.692;2023-03-31T06:56:11;13.25;;;6.75;;
76850;SDS011;65824;43.726;20.692;2023-03-31T06:58:38;15.30;;;6.60;;
76850;SDS011;65824;43.726;20.692;2023-03-31T07:01:04;12.30;;;6.10;;
76850;SDS011;65824;43.726;20.692;2023-03-31T07:03:30;24.48;;;10.55;;
76850;SDS011;65824;43.726;20.692;2023-03-31T07:05:58;15.02;;;6.38;;
76850;SDS011;65824;43.726;20.692;2023-03-31T07:08:24;13.85;;;5.43;;
76850;SDS011;65824;43.726;20.692;2023-03-31T07:10:58;17.67;;;6.10;;
76850;SDS011;65824;43.726;20.692;2023-03-31T07:13:25;10.50;;;4.72;;
76850;SDS011;65824;43.726;20.692;2023-03-31T07:15:52;9.68;;;4.10;;
76850;SDS011;65824;43.726;20.692;2023-03-31T07:18:19;13.13;;;4.90;;
76850;SDS011;65824;43.726;20.692;2023-03-31T07:20:48;13.15;;;7.38;;
76850;SDS011;65824;43.726;20.692;2023-03-31T07:23:16;14.65;;;5.93;;
76850;SDS011;65824;43.726;20.692;2023-03-31T07:25:43;10.80;;;4.35;;
76850;SDS011;65824;43.726;20.692;2023-03-31T07:28:13;10.70;;;4.10;;
76850;SDS011;65824;43.726;20.692;2023-03-31T07:30:39;11.25;;;4.30;;
76850;SDS011;65824;43.726;20.692;2023-03-31T07:33:05;8.77;;;3.35;;
76850;SDS011;65824;43.726;20.692;2023-03-31T07:35:32;9.55;;;3.38;;
76850;SDS011;65824;43.726;20.692;2023-03-31T07:38:02;9.40;;;3.47;;
76850;SDS011;65824;43.726;20.692;2023-03-31T07:40:28;6.97;;;3.00;;
76850;SDS011;65824;43.726;20.692;2023-03-31T07:42:54;8.98;;;3.85;;
76850;SDS011;65824;43.726;20.692;2023-03-31T07:45:21;8.90;;;3.35;;
76850;SDS011;65824;43.726;20.692;2023-03-31T07:47:49;13.82;;;3.63;;
76850;SDS011;65824;43.726;20.692;2023-03-31T07:50:15;11.25;;;3.75;;
76850;SDS011;65824;43.726;20.692;2023-03-31T07:52:41;11.32;;;3.55;;
76850;SDS011;65824;43.726;20.692;2023-03-31T07:55:10;5.93;;;3.20;;
76850;SDS011;65824;43.726;20.692;2023-03-31T07:57:36;8.20;;;2.90;;
76850;SDS011;65824;43.726;20.692;2023-03-31T08:00:04;10.73;;;3.75;;
76850;SDS011;65824;43.726;20.692;2023-03-31T08:02:31;11.50;;;4.32;;
76850;SDS011;65824;43.726;20.692;2023-03-31T08:04:58;13.35;;;5.75;;
76850;SDS011;65824;43.726;20.692;2023-03-31T08:07:25;19.45;;;7.82;;
76850;SDS011;65824;43.726;20.692;2023-03-31T08:09:54;13.35;;;6.05;;
76850;SDS011;65824;43.726;20.692;2023-03-31T08:12:20;12.45;;;5.47;;
76850;SDS011;65824;43.726;20.692;2023-03-31T08:14:45;12.82;;;4.70;;
76850;SDS011;65824;43.726;20.692;2023-03-31T08:17:14;10.80;;;4.95;;
76850;SDS011;65824;43.726;20.692;2023-03-31T08:19:40;12.95;;;7.05;;
76850;SDS011;65824;43.726;20.692;2023-03-31T08:22:14;9.50;;;3.53;;
76850;SDS011;65824;43.726;20.692;2023-03-31T08:24:40;9.02;;;4.00;;
76850;SDS011;65824;43.726;20.692;2023-03-31T08:27:08;8.70;;;3.33;;
76850;SDS011;65824;43.726;20.692;2023-03-31T08:29:34;11.52;;;3.90;;
76850;SDS011;65824;43.726;20.692;2023-03-31T08:32:01;9.43;;;3.50;;
76850;SDS011;65824;43.726;20.692;2023-03-31T08:34:27;7.60;;;3.40;;
76850;SDS011;65824;43.726;20.692;2023-03-31T08:36:53;9.30;;;3.22;;
76850;SDS011;65824;43.726;20.692;2023-03-31T08:39:22;10.05;;;3.75;;
76850;SDS011;65824;43.726;20.692;2023-03-31T08:44:37;10.02;;;3.40;;
76850;SDS011;65824;43.726;20.692;2023-03-31T08:47:08;6.25;;;2.63;;
76850;SDS011;65824;43.726;20.692;2023-03-31T08:49:44;4.68;;;2.08;;
76850;SDS011;65824;43.726;20.692;2023-03-31T08:52:18;5.28;;;2.00;;
76850;SDS011;65824;43.726;20.692;2023-03-31T08:55:06;7.80;;;2.63;;
76850;SDS011;65824;43.726;20.692;2023-03-31T08:57:39;11.38;;;2.83;;
76850;SDS011;65824;43.726;20.692;2023-03-31T09:00:17;6.45;;;2.70;;
76850;SDS011;65824;43.726;20.692;2023-03-31T09:02:50;7.07;;;2.90;;
76850;SDS011;65824;43.726;20.692;2023-03-31T09:11:06;8.45;;;3.90;;
76850;SDS011;65824;43.726;20.692;2023-03-31T09:16:18;8.02;;;2.90;;
76850;SDS011;65824;43.726;20.692;2023-03-31T09:18:51;5.90;;;2.92;;
76850;SDS011;65824;43.726;20.692;2023-03-31T09:21:36;8.05;;;3.50;;
76850;SDS011;65824;43.726;20.692;2023-03-31T09:24:07;9.30;;;3.30;;
76850;SDS011;65824;43.726;20.692;2023-03-31T09:26:49;8.95;;;2.80;;
76850;SDS011;65824;43.726;20.692;2023-03-31T09:29:27;7.28;;;2.63;;
76850;SDS011;65824;43.726;20.692;2023-03-31T09:32:21;7.43;;;2.90;;
76850;SDS011;65824;43.726;20.692;2023-03-31T09:34:50;9.27;;;5.15;;
76850;SDS011;65824;43.726;20.692;2023-03-31T09:37:18;8.20;;;3.67;;
76850;SDS011;65824;43.726;20.692;2023-03-31T09:39:43;8.93;;;2.72;;
76850;SDS011;65824;43.726;20.692;2023-03-31T09:42:11;8.25;;;2.72;;
76850;SDS011;65824;43.726;20.692;2023-03-31T09:44:42;9.57;;;3.33;;
76850;SDS011;65824;43.726;20.692;2023-03-31T09:47:11;10.00;;;3.28;;
76850;SDS011;65824;43.726;20.692;2023-03-31T09:49:44;6.47;;;3.17;;
76850;SDS011;65824;43.726;20.692;2023-03-31T09:52:24;7.63;;;3.05;;
76850;SDS011;65824;43.726;20.692;2023-03-31T09:55:01;7.15;;;2.83;;
76850;SDS011;65824;43.726;20.692;2023-03-31T09:57:42;7.50;;;2.42;;
76850;SDS011;65824;43.726;20.692;2023-03-31T10:02:43;6.90;;;3.00;;
76850;SDS011;65824;43.726;20.692;2023-03-31T10:05:32;8.68;;;2.72;;
76850;SDS011;65824;43.726;20.692;2023-03-31T10:08:13;9.25;;;4.60;;
76850;SDS011;65824;43.726;20.692;2023-03-31T10:14:13;8.10;;;3.67;;
76850;SDS011;65824;43.726;20.692;2023-03-31T10:19:00;9.90;;;2.90;;
76850;SDS011;65824;43.726;20.692;2023-03-31T10:21:36;6.18;;;2.67;;
76850;SDS011;65824;43.726;20.692;2023-03-31T10:24:07;5.32;;;2.50;;
76850;SDS011;65824;43.726;20.692;2023-03-31T10:26:36;6.53;;;2.80;;
76850;SDS011;65824;43.726;20.692;2023-03-31T10:29:08;9.10;;;3.17;;
76850;SDS011;65824;43.726;20.692;2023-03-31T10:31:36;8.48;;;2.80;;
76850;SDS011;65824;43.726;20.692;2023-03-31T10:34:05;7.40;;;3.00;;
76850;SDS011;65824;43.726;20.692;2023-03-31T10:36:39;7.45;;;2.70;;
76850;SDS011;65824;43.726;20.692;2023-03-31T10:39:11;6.15;;;2.90;;
76850;SDS011;65824;43.726;20.692;2023-03-31T10:41:42;5.85;;;2.00;;
76850;SDS011;65824;43.726;20.692;2023-03-31T10:44:10;5.13;;;2.20;;
76850;SDS011;65824;43.726;20.692;2023-03-31T10:47:05;6.10;;;2.30;;
76850;SDS011;65824;43.726;20.692;2023-03-31T10:49:44;5.68;;;2.58;;
76850;SDS011;65824;43.726;20.692;2023-03-31T10:52:20;5.65;;;2.42;;
76850;SDS011;65824;43.726;20.692;2023-03-31T10:54:48;7.22;;;2.08;;
76850;SDS011;65824;43.726;20.692;2023-03-31T10:57:25;9.38;;;3.00;;
76850;SDS011;65824;43.726;20.692;2023-03-31T11:06:26;4.82;;;2.50;;
76850;SDS011;65824;43.726;20.692;2023-03-31T11:09:06;5.93;;;3.17;;
76850;SDS011;65824;43.726;20.692;2023-03-31T11:11:52;4.35;;;2.35;;
76850;SDS011;65824;43.726;20.692;2023-03-31T11:14:45;5.70;;;2.38;;
76850;SDS011;65824;43.726;20.692;2023-03-31T11:28:44;7.55;;;2.72;;
76850;SDS011;65824;43.726;20.692;2023-03-31T11:31:23;6.78;;;2.88;;
76850;SDS011;65824;43.726;20.692;2023-03-31T11:39:29;6.75;;;2.40;;
76850;SDS011;65824;43.726;20.692;2023-03-31T11:42:04;7.95;;;2.42;;
76850;SDS011;65824;43.726;20.692;2023-03-31T11:44:40;6.90;;;2.53;;
76850;SDS011;65824;43.726;20.692;2023-03-31T11:47:09;7.75;;;2.63;;
76850;SDS011;65824;43.726;20.692;2023-03-31T11:49:40;7.18;;;2.13;;
76850;SDS011;65824;43.726;20.692;2023-03-31T11:58:09;6.82;;;2.70;;
76850;SDS011;65824;43.726;20.692;2023-03-31T12:00:28;6.63;;;2.63;;
76850;SDS011;65824;43.726;20.692;2023-03-31T12:05:25;5.07;;;2.53;;
76850;SDS011;65824;43.726;20.692;2023-03-31T12:07:57;5.78;;;2.35;;
76850;SDS011;65824;43.726;20.692;2023-03-31T12:10:31;6.63;;;2.90;;
76850;SDS011;65824;43.726;20.692;2023-03-31T12:16:16;5.72;;;2.40;;
76850;SDS011;65824;43.726;20.692;2023-03-31T12:19:05;5.20;;;1.90;;
76850;SDS011;65824;43.726;20.692;2023-03-31T12:21:39;10.02;;;2.78;;
76850;SDS011;65824;43.726;20.692;2023-03-31T12:24:12;4.30;;;2.22;;
76850;SDS011;65824;43.726;20.692;2023-03-31T12:26:57;6.50;;;2.38;;
76850;SDS011;65824;43.726;20.692;2023-03-31T12:32:25;8.35;;;2.60;;
76850;SDS011;65824;43.726;20.692;2023-03-31T12:34:54;6.78;;;2.40;;
76850;SDS011;65824;43.726;20.692;2023-03-31T12:38:32;5.47;;;2.40;;
76850;SDS011;65824;43.726;20.692;2023-03-31T12:43:30;11.02;;;2.78;;
76850;SDS011;65824;43.726;20.692;2023-03-31T12:54:11;8.50;;;2.65;;
76850;SDS011;65824;43.726;20.692;2023-03-31T12:59:37;5.60;;;2.33;;
76850;SDS011;65824;43.726;20.692;2023-03-31T13:04:45;9.88;;;3.20;;
76850;SDS011;65824;43.726;20.692;2023-03-31T13:12:38;9.38;;;2.60;;
76850;SDS011;65824;43.726;20.692;2023-03-31T13:15:12;7.95;;;2.70;;
76850;SDS011;65824;43.726;20.692;2023-03-31T13:17:38;6.35;;;2.20;;
76850;SDS011;65824;43.726;20.692;2023-03-31T13:23:38;6.43;;;2.50;;
76850;SDS011;65824;43.726;20.692;2023-03-31T13:33:27;6.03;;;2.40;;
76850;SDS011;65824;43.726;20.692;2023-03-31T13:36:18;4.55;;;2.03;;
76850;SDS011;65824;43.726;20.692;2023-03-31T14:07:12;6.50;;;3.08;;
76850;SDS011;65824;43.726;20.692;2023-03-31T14:09:58;10.02;;;2.75;;
76850;SDS011;65824;43.726;20.692;2023-03-31T14:12:31;7.22;;;2.22;;
76850;SDS011;65824;43.726;20.692;2023-03-31T14:14:59;7.50;;;2.80;;
76850;SDS011;65824;43.726;20.692;2023-03-31T14:17:26;6.45;;;2.42;;
76850;SDS011;65824;43.726;20.692;2023-03-31T14:22:43;6.45;;;1.92;;
76850;SDS011;65824;43.726;20.692;2023-03-31T14:28:17;6.32;;;2.35;;
76850;SDS011;65824;43.726;20.692;2023-03-31T14:37:03;5.95;;;2.67;;
76850;SDS011;65824;43.726;20.692;2023-03-31T14:39:30;5.32;;;2.28;;
76850;SDS011;65824;43.726;20.692;2023-03-31T14:42:00;4.60;;;2.38;;
76850;SDS011;65824;43.726;20.692;2023-03-31T14:44:27;5.20;;;2.33;;
76850;SDS011;65824;43.726;20.692;2023-03-31T14:46:55;5.13;;;1.92;;
76850;SDS011;65824;43.726;20.692;2023-03-31T14:52:30;10.75;;;3.00;;
76850;SDS011;65824;43.726;20.692;2023-03-31T14:54:57;9.63;;;2.92;;
76850;SDS011;65824;43.726;20.692;2023-03-31T14:57:31;9.00;;;2.70;;
76850;SDS011;65824;43.726;20.692;2023-03-31T14:59:58;8.30;;;2.38;;
76850;SDS011;65824;43.726;20.692;2023-03-31T15:02:44;8.43;;;2.42;;
76850;SDS011;65824;43.726;20.692;2023-03-31T15:05:31;5.00;;;2.13;;
76850;SDS011;65824;43.726;20.692;2023-03-31T15:08:03;7.75;;;2.72;;
76850;SDS011;65824;43.726;20.692;2023-03-31T15:13:11;8.10;;;2.95;;
76850;SDS011;65824;43.726;20.692;2023-03-31T15:15:44;8.48;;;2.92;;
76850;SDS011;65824;43.726;20.692;2023-03-31T15:18:12;7.43;;;2.28;;
76850;SDS011;65824;43.726;20.692;2023-03-31T15:20:40;7.50;;;2.60;;
76850;SDS011;65824;43.726;20.692;2023-03-31T15:23:18;6.53;;;3.05;;
76850;SDS011;65824;43.726;20.692;2023-03-31T15:25:48;9.93;;;3.00;;
76850;SDS011;65824;43.726;20.692;2023-03-31T15:28:15;7.00;;;3.08;;
76850;SDS011;65824;43.726;20.692;2023-03-31T15:30:42;8.32;;;3.28;;
76850;SDS011;65824;43.726;20.692;2023-03-31T15:33:16;6.35;;;3.25;;
76850;SDS011;65824;43.726;20.692;2023-03-31T15:35:56;5.90;;;2.88;;
76850;SDS011;65824;43.726;20.692;2023-03-31T15:38:21;6.53;;;3.17;;
76850;SDS011;65824;43.726;20.692;2023-03-31T15:40:54;6.15;;;2.90;;
76850;SDS011;65824;43.726;20.692;2023-03-31T15:43:28;8.95;;;2.80;;
76850;SDS011;65824;43.726;20.692;2023-03-31T15:45:58;11.23;;;3.80;;
76850;SDS011;65824;43.726;20.692;2023-03-31T15:48:37;9.65;;;3.80;;
76850;SDS011;65824;43.726;20.692;2023-03-31T15:53:50;9.13;;;4.03;;
76850;SDS011;65824;43.726;20.692;2023-03-31T15:56:33;8.38;;;4.22;;
76850;SDS011;65824;43.726;20.692;2023-03-31T15:59:03;9.45;;;4.25;;
76850;SDS011;65824;43.726;20.692;2023-03-31T16:01:51;9.68;;;4.60;;
76850;SDS011;65824;43.726;20.692;2023-03-31T16:04:17;8.35;;;4.15;;
76850;SDS011;65824;43.726;20.692;2023-03-31T16:09:24;8.02;;;4.10;;
76850;SDS011;65824;43.726;20.692;2023-03-31T16:11:53;12.45;;;4.07;;
76850;SDS011;65824;43.726;20.692;2023-03-31T16:14:22;9.20;;;4.00;;
76850;SDS011;65824;43.726;20.692;2023-03-31T16:16:54;8.98;;;4.22;;
76850;SDS011;65824;43.726;20.692;2023-03-31T16:19:45;9.10;;;4.65;;
76850;SDS011;65824;43.726;20.692;2023-03-31T16:22:43;11.88;;;4.90;;
76850;SDS011;65824;43.726;20.692;2023-03-31T16:25:10;9.60;;;4.70;;
76850;SDS011;65824;43.726;20.692;2023-03-31T16:27:40;11.20;;;5.18;;
76850;SDS011;65824;43.726;20.692;2023-03-31T16:30:34;7.45;;;4.57;;
76850;SDS011;65824;43.726;20.692;2023-03-31T16:33:05;11.30;;;5.25;;
76850;SDS011;65824;43.726;20.692;2023-03-31T16:35:42;14.40;;;7.28;;
76850;SDS011;65824;43.726;20.692;2023-03-31T16:38:17;18.58;;;10.27;;
76850;SDS011;65824;43.726;20.692;2023-03-31T16:40:45;15.95;;;10.05;;
76850;SDS011;65824;43.726;20.692;2023-03-31T16:43:29;20.73;;;10.35;;
76850;SDS011;65824;43.726;20.692;2023-03-31T16:48:24;18.23;;;9.95;;
76850;SDS011;65824;43.726;20.692;2023-03-31T16:50:51;21.58;;;10.05;;
76850;SDS011;65824;43.726;20.692;2023-03-31T16:53:20;19.17;;;10.05;;
76850;SDS011;65824;43.726;20.692;2023-03-31T16:55:47;17.85;;;9.35;;
76850;SDS011;65824;43.726;20.692;2023-03-31T16:58:19;17.35;;;9.95;;
76850;SDS011;65824;43.726;20.692;2023-03-31T17:00:45;23.35;;;10.35;;
76850;SDS011;65824;43.726;20.692;2023-03-31T17:03:11;31.38;;;14.57;;
76850;SDS011;65824;43.726;20.692;2023-03-31T17:05:41;30.77;;;15.15;;
76850;SDS011;65824;43.726;20.692;2023-03-31T17:08:11;25.13;;;13.93;;
76850;SDS011;65824;43.726;20.692;2023-03-31T17:10:38;29.65;;;15.05;;
76850;SDS011;65824;43.726;20.692;2023-03-31T17:13:07;31.98;;;18.13;;
76850;SDS011;65824;43.726;20.692;2023-03-31T17:15:33;30.13;;;14.40;;
76850;SDS011;65824;43.726;20.692;2023-03-31T17:18:00;23.95;;;12.15;;
76850;SDS011;65824;43.726;20.692;2023-03-31T17:20:27;25.85;;;13.23;;
76850;SDS011;65824;43.726;20.692;2023-03-31T17:22:53;29.38;;;14.75;;
76850;SDS011;65824;43.726;20.692;2023-03-31T17:25:19;31.23;;;14.93;;
76850;SDS011;65824;43.726;20.692;2023-03-31T17:27:45;27.17;;;14.70;;
76850;SDS011;65824;43.726;20.692;2023-03-31T17:30:11;22.98;;;12.32;;
76850;SDS011;65824;43.726;20.692;2023-03-31T17:32:38;24.15;;;13.23;;
76850;SDS011;65824;43.726;20.692;2023-03-31T17:35:07;22.13;;;13.15;;
76850;SDS011;65824;43.726;20.692;2023-03-31T17:37:34;23.40;;;12.93;;
76850;SDS011;65824;43.726;20.692;2023-03-31T17:39:59;22.92;;;13.48;;
76850;SDS011;65824;43.726;20.692;2023-03-31T17:42:25;28.38;;;16.17;;
76850;SDS011;65824;43.726;20.692;2023-03-31T17:44:51;25.23;;;14.35;;
76850;SDS011;65824;43.726;20.692;2023-03-31T17:47:18;24.35;;;14.38;;
76850;SDS011;65824;43.726;20.692;2023-03-31T17:49:44;32.60;;;17.33;;
76850;SDS011;65824;43.726;20.692;2023-03-31T17:52:13;32.28;;;16.90;;